sensor_id;sensor_type;location;lat;lon;timestamp;pressure;altitude;pressure_sealevel;temperature
15144;BMP180;7672;50.834;6.286;2024-02-16T00:02:26;99135.81;;;17.19
15144;BMP180;7672;50.834;6.286;2024-02-16T00:04:53;99126.41;;;17.21
15144;BMP180;7672;50.834;6.286;2024-02-16T00:07:20;99133.09;;;17.25
15144;BMP180;7672;50.834;6.286;2024-02-16T00:09:48;99120.22;;;17.28
15144;BMP180;7672;50.834;6.286;2024-02-16T00:12:15;99126.03;;;17.33
15144;BMP180;7672;50.834;6.286;2024-02-16T00:14:43;99121.66;;;17.36
15144;BMP180;7672;50.834;6.286;2024-02-16T00:17:13;99130.06;;;17.40
15144;BMP180;7672;50.834;6.286;2024-02-16T00:19:40;99133.31;;;17.45
15144;BMP180;7672;50.834;6.286;2024-02-16T00:22:07;99131.53;;;17.47
15144;BMP180;7672;50.834;6.286;2024-02-16T00:24:35;99122.06;;;17.50
15144;BMP180;7672;50.834;6.286;2024-02-16T00:27:03;99122.81;;;17.54
15144;BMP180;7672;50.834;6.286;2024-02-16T00:29:32;99121.88;;;17.56
15144;BMP180;7672;50.834;6.286;2024-02-16T00:31:59;99126.03;;;17.59
15144;BMP180;7672;50.834;6.286;2024-02-16T00:34:26;99114.91;;;17.61
15144;BMP180;7672;50.834;6.286;2024-02-16T00:36:53;99123.31;;;17.63
15144;BMP180;7672;50.834;6.286;2024-02-16T00:39:20;99125.81;;;17.65
15144;BMP180;7672;50.834;6.286;2024-02-16T00:41:48;99118.09;;;17.66
15144;BMP180;7672;50.834;6.286;2024-02-16T00:44:16;99123.13;;;17.69
15144;BMP180;7672;50.834;6.286;2024-02-16T00:46:44;99118.84;;;17.70
15144;BMP180;7672;50.834;6.286;2024-02-16T00:49:11;99125.69;;;17.69
15144;BMP180;7672;50.834;6.286;2024-02-16T00:51:40;99123.97;;;17.70
15144;BMP180;7672;50.834;6.286;2024-02-16T00:54:07;99120.56;;;17.69
15144;BMP180;7672;50.834;6.286;2024-02-16T00:56:34;99113.72;;;17.70
15144;BMP180;7672;50.834;6.286;2024-02-16T00:59:02;99120.47;;;17.72
15144;BMP180;7672;50.834;6.286;2024-02-16T01:01:29;99115.28;;;17.74
15144;BMP180;7672;50.834;6.286;2024-02-16T01:03:56;99126.31;;;17.76
15144;BMP180;7672;50.834;6.286;2024-02-16T01:06:24;99117.84;;;17.74
15144;BMP180;7672;50.834;6.286;2024-02-16T01:08:51;99117.91;;;17.72
15144;BMP180;7672;50.834;6.286;2024-02-16T01:11:18;99114.53;;;17.72
15144;BMP180;7672;50.834;6.286;2024-02-16T01:13:46;99119.63;;;17.72
15144;BMP180;7672;50.834;6.286;2024-02-16T01:16:13;99120.53;;;17.71
15144;BMP180;7672;50.834;6.286;2024-02-16T01:18:40;99114.59;;;17.70
15144;BMP180;7672;50.834;6.286;2024-02-16T01:21:07;99112.91;;;17.69
15144;BMP180;7672;50.834;6.286;2024-02-16T01:23:35;99112.91;;;17.69
15144;BMP180;7672;50.834;6.286;2024-02-16T01:26:02;99112.06;;;17.69
15144;BMP180;7672;50.834;6.286;2024-02-16T01:28:30;99115.53;;;17.66
15144;BMP180;7672;50.834;6.286;2024-02-16T01:30:57;99110.44;;;17.66
15144;BMP180;7672;50.834;6.286;2024-02-16T01:33:24;99118.16;;;17.65
15144;BMP180;7672;50.834;6.286;2024-02-16T01:35:51;99113.97;;;17.64
15144;BMP180;7672;50.834;6.286;2024-02-16T01:38:18;99116.53;;;17.62
15144;BMP180;7672;50.834;6.286;2024-02-16T01:40:45;99123.38;;;17.62
15144;BMP180;7672;50.834;6.286;2024-02-16T01:43:12;99124.25;;;17.61
15144;BMP180;7672;50.834;6.286;2024-02-16T01:45:39;99131.97;;;17.59
15144;BMP180;7672;50.834;6.286;2024-02-16T01:48:07;99129.47;;;17.58
15144;BMP180;7672;50.834;6.286;2024-02-16T01:50:34;99130.38;;;17.57
15144;BMP180;7672;50.834;6.286;2024-02-16T01:53:04;99127.91;;;17.54
15144;BMP180;7672;50.834;6.286;2024-02-16T01:55:31;99127.91;;;17.54
15144;BMP180;7672;50.834;6.286;2024-02-16T01:58:00;99127.06;;;17.53
15144;BMP180;7672;50.834;6.286;2024-02-16T02:00:27;99125.44;;;17.51
15144;BMP180;7672;50.834;6.286;2024-02-16T02:02:54;99130.56;;;17.51
15144;BMP180;7672;50.834;6.286;2024-02-16T02:05:21;99131.47;;;17.50
15144;BMP180;7672;50.834;6.286;2024-02-16T02:07:48;99130.59;;;17.49
15144;BMP180;7672;50.834;6.286;2024-02-16T02:10:16;99128.94;;;17.48
15144;BMP180;7672;50.834;6.286;2024-02-16T02:12:43;99130.66;;;17.48
15144;BMP180;7672;50.834;6.286;2024-02-16T02:15:11;99127.28;;;17.47
15144;BMP180;7672;50.834;6.286;2024-02-16T02:17:38;99128.16;;;17.46
15144;BMP180;7672;50.834;6.286;2024-02-16T02:20:07;99119.63;;;17.46
15144;BMP180;7672;50.834;6.286;2024-02-16T02:22:38;99116.31;;;17.44
15144;BMP180;7672;50.834;6.286;2024-02-16T02:25:06;99120.63;;;17.42
15144;BMP180;7672;50.834;6.286;2024-02-16T02:27:33;99115.63;;;17.39
15144;BMP180;7672;50.834;6.286;2024-02-16T02:30:00;99112.38;;;17.34
15144;BMP180;7672;50.834;6.286;2024-02-16T02:32:27;99113.38;;;17.30
15144;BMP180;7672;50.834;6.286;2024-02-16T02:34:55;99113.50;;;17.26
15144;BMP180;7672;50.834;6.286;2024-02-16T02:37:22;99111.03;;;17.23
15144;BMP180;7672;50.834;6.286;2024-02-16T02:39:49;99112.78;;;17.21
15144;BMP180;7672;50.834;6.286;2024-02-16T02:42:16;99111.22;;;17.17
15144;BMP180;7672;50.834;6.286;2024-02-16T02:44:43;99118.19;;;17.12
15144;BMP180;7672;50.834;6.286;2024-02-16T02:47:16;99109.03;;;17.05
15144;BMP180;7672;50.834;6.286;2024-02-16T02:49:44;99115.09;;;17.02
15144;BMP180;7672;50.834;6.286;2024-02-16T02:52:11;99114.38;;;16.97
15144;BMP180;7672;50.834;6.286;2024-02-16T02:54:38;99113.59;;;16.95
15144;BMP180;7672;50.834;6.286;2024-02-16T02:57:06;99110.34;;;16.90
15144;BMP180;7672;50.834;6.286;2024-02-16T02:59:33;99107.84;;;16.89
15144;BMP180;7672;50.834;6.286;2024-02-16T03:02:00;99113.03;;;16.86
15144;BMP180;7672;50.834;6.286;2024-02-16T03:04:27;99112.25;;;16.84
15144;BMP180;7672;50.834;6.286;2024-02-16T03:06:54;99108.97;;;16.80
15144;BMP180;7672;50.834;6.286;2024-02-16T03:09:21;99102.31;;;16.75
15144;BMP180;7672;50.834;6.286;2024-02-16T03:11:49;99090.56;;;16.70
15144;BMP180;7672;50.834;6.286;2024-02-16T03:14:17;99093.28;;;16.64
15144;BMP180;7672;50.834;6.286;2024-02-16T03:16:44;99095.16;;;16.59
15144;BMP180;7672;50.834;6.286;2024-02-16T03:19:11;99085.09;;;16.54
15144;BMP180;7672;50.834;6.286;2024-02-16T03:21:39;99091.16;;;16.50
15144;BMP180;7672;50.834;6.286;2024-02-16T03:24:06;99088.78;;;16.44
15144;BMP180;7672;50.834;6.286;2024-02-16T03:26:33;99082.16;;;16.39
15144;BMP180;7672;50.834;6.286;2024-02-16T03:29:01;99070.34;;;16.35
15144;BMP180;7672;50.834;6.286;2024-02-16T03:31:28;99078.09;;;16.32
15144;BMP180;7672;50.834;6.286;2024-02-16T03:33:55;99074.78;;;16.28
15144;BMP180;7672;50.834;6.286;2024-02-16T03:36:23;99085.91;;;16.26
15144;BMP180;7672;50.834;6.286;2024-02-16T03:38:51;99096.97;;;16.25
15144;BMP180;7672;50.834;6.286;2024-02-16T03:41:23;99091.13;;;16.21
15144;BMP180;7672;50.834;6.286;2024-02-16T03:43:50;99093.72;;;16.20
15144;BMP180;7672;50.834;6.286;2024-02-16T03:46:18;99092.03;;;16.19
15144;BMP180;7672;50.834;6.286;2024-02-16T03:48:45;99098.00;;;16.18
15144;BMP180;7672;50.834;6.286;2024-02-16T03:51:13;99109.94;;;16.17
15144;BMP180;7672;50.834;6.286;2024-02-16T03:53:40;99112.53;;;16.14
15144;BMP180;7672;50.834;6.286;2024-02-16T03:56:07;99118.56;;;16.12
15144;BMP180;7672;50.834;6.286;2024-02-16T03:58:36;99126.25;;;16.10
15144;BMP180;7672;50.834;6.286;2024-02-16T04:01:04;99125.50;;;16.07
15144;BMP180;7672;50.834;6.286;2024-02-16T04:03:33;99122.16;;;16.05
15144;BMP180;7672;50.834;6.286;2024-02-16T04:06:00;99118.75;;;16.05
15144;BMP180;7672;50.834;6.286;2024-02-16T04:08:28;99119.72;;;16.02
15144;BMP180;7672;50.834;6.286;2024-02-16T04:10:55;99117.16;;;16.02
15144;BMP180;7672;50.834;6.286;2024-02-16T04:13:23;99114.53;;;16.05
15144;BMP180;7672;50.834;6.286;2024-02-16T04:15:50;99112.75;;;16.07
15144;BMP180;7672;50.834;6.286;2024-02-16T04:18:21;99113.56;;;16.09
15144;BMP180;7672;50.834;6.286;2024-02-16T04:20:48;99116.88;;;16.12
15144;BMP180;7672;50.834;6.286;2024-02-16T04:23:15;99116.72;;;16.17
15144;BMP180;7672;50.834;6.286;2024-02-16T04:25:42;99118.31;;;16.21
15144;BMP180;7672;50.834;6.286;2024-02-16T04:28:09;99125.84;;;16.25
15144;BMP180;7672;50.834;6.286;2024-02-16T04:30:36;99123.22;;;16.30
15144;BMP180;7672;50.834;6.286;2024-02-16T04:33:04;99131.53;;;16.35
15144;BMP180;7672;50.834;6.286;2024-02-16T04:35:31;99128.06;;;16.39
15144;BMP180;7672;50.834;6.286;2024-02-16T04:37:58;99124.53;;;16.43
15144;BMP180;7672;50.834;6.286;2024-02-16T04:40:25;99129.50;;;16.47
15144;BMP180;7672;50.834;6.286;2024-02-16T04:42:53;99121.72;;;16.52
15144;BMP180;7672;50.834;6.286;2024-02-16T04:45:20;99130.97;;;16.56
15144;BMP180;7672;50.834;6.286;2024-02-16T04:47:47;99122.44;;;16.57
15144;BMP180;7672;50.834;6.286;2024-02-16T04:50:15;99130.00;;;16.60
15144;BMP180;7672;50.834;6.286;2024-02-16T04:52:42;99122.22;;;16.63
15144;BMP180;7672;50.834;6.286;2024-02-16T04:55:10;99134.16;;;16.62
15144;BMP180;7672;50.834;6.286;2024-02-16T04:57:37;99134.13;;;16.64
15144;BMP180;7672;50.834;6.286;2024-02-16T05:00:05;99120.50;;;16.65
15144;BMP180;7672;50.834;6.286;2024-02-16T05:02:32;99115.34;;;16.66
15144;BMP180;7672;50.834;6.286;2024-02-16T05:04:59;99113.63;;;16.67
15144;BMP180;7672;50.834;6.286;2024-02-16T05:07:30;99111.00;;;16.70
15144;BMP180;7672;50.834;6.286;2024-02-16T05:09:58;99114.31;;;16.71
15144;BMP180;7672;50.834;6.286;2024-02-16T05:12:26;99108.34;;;16.72
15144;BMP180;7672;50.834;6.286;2024-02-16T05:14:53;99103.16;;;16.75
15144;BMP180;7672;50.834;6.286;2024-02-16T05:17:21;99098.78;;;16.79
15144;BMP180;7672;50.834;6.286;2024-02-16T05:19:49;99102.97;;;16.81
15144;BMP180;7672;50.834;6.286;2024-02-16T05:22:16;99105.44;;;16.84
15144;BMP180;7672;50.834;6.286;2024-02-16T05:24:46;99105.34;;;16.87
15144;BMP180;7672;50.834;6.286;2024-02-16T05:27:13;99107.84;;;16.89
15144;BMP180;7672;50.834;6.286;2024-02-16T05:29:41;99110.34;;;16.90
15144;BMP180;7672;50.834;6.286;2024-02-16T05:32:08;99098.44;;;16.91
15144;BMP180;7672;50.834;6.286;2024-02-16T05:34:35;99098.38;;;16.92
15144;BMP180;7672;50.834;6.286;2024-02-16T05:37:06;99104.22;;;16.96
15144;BMP180;7672;50.834;6.286;2024-02-16T05:39:36;99101.56;;;16.99
15144;BMP180;7672;50.834;6.286;2024-02-16T05:42:10;99086.25;;;16.99
15144;BMP180;7672;50.834;6.286;2024-02-16T05:44:38;99103.13;;;17.03
15144;BMP180;7672;50.834;6.286;2024-02-16T05:47:05;99092.88;;;17.04
15144;BMP180;7672;50.834;6.286;2024-02-16T05:49:32;99097.84;;;17.09
15144;BMP180;7672;50.834;6.286;2024-02-16T05:51:59;99096.09;;;17.11
15144;BMP180;7672;50.834;6.286;2024-02-16T05:54:46;99096.06;;;17.12
15144;BMP180;7672;50.834;6.286;2024-02-16T05:57:14;99093.38;;;17.15
15144;BMP180;7672;50.834;6.286;2024-02-16T05:59:41;99095.84;;;17.18
15144;BMP180;7672;50.834;6.286;2024-02-16T06:02:09;99089.78;;;17.21
15144;BMP180;7672;50.834;6.286;2024-02-16T06:04:38;99103.38;;;17.23
15144;BMP180;7672;50.834;6.286;2024-02-16T06:07:06;99105.03;;;17.24
15144;BMP180;7672;50.834;6.286;2024-02-16T06:09:34;99110.91;;;17.27
15144;BMP180;7672;50.834;6.286;2024-02-16T06:12:06;99118.56;;;17.27
15144;BMP180;7672;50.834;6.286;2024-02-16T06:14:34;99114.31;;;17.28
15144;BMP180;7672;50.834;6.286;2024-02-16T06:17:01;99124.41;;;17.31
15144;BMP180;7672;50.834;6.286;2024-02-16T06:19:31;99123.59;;;17.30
15144;BMP180;7672;50.834;6.286;2024-02-16T06:21:58;99123.66;;;17.27
15144;BMP180;7672;50.834;6.286;2024-02-16T06:24:25;99122.03;;;17.26
15144;BMP180;7672;50.834;6.286;2024-02-16T06:26:53;99130.56;;;17.25
15144;BMP180;7672;50.834;6.286;2024-02-16T06:29:23;99134.84;;;17.23
15144;BMP180;7672;50.834;6.286;2024-02-16T06:31:51;99143.47;;;17.19
15144;BMP180;7672;50.834;6.286;2024-02-16T06:34:19;99154.78;;;17.12
15144;BMP180;7672;50.834;6.286;2024-02-16T06:36:46;99164.13;;;17.12
15144;BMP180;7672;50.834;6.286;2024-02-16T06:39:16;99173.63;;;17.08
15144;BMP180;7672;50.834;6.286;2024-02-16T06:41:47;99184.66;;;17.09
15144;BMP180;7672;50.834;6.286;2024-02-16T06:44:14;99191.53;;;17.07
15144;BMP180;7672;50.834;6.286;2024-02-16T06:46:42;99187.31;;;17.06
15144;BMP180;7672;50.834;6.286;2024-02-16T06:49:10;99187.38;;;17.03
15144;BMP180;7672;50.834;6.286;2024-02-16T06:51:37;99200.22;;;17.01
15144;BMP180;7672;50.834;6.286;2024-02-16T06:54:04;99204.50;;;16.99
15144;BMP180;7672;50.834;6.286;2024-02-16T06:56:32;99193.47;;;16.99
15144;BMP180;7672;50.834;6.286;2024-02-16T06:58:59;99197.75;;;16.98
15144;BMP180;7672;50.834;6.286;2024-02-16T07:01:26;99199.41;;;16.99
15144;BMP180;7672;50.834;6.286;2024-02-16T07:03:55;99198.56;;;16.99
15144;BMP180;7672;50.834;6.286;2024-02-16T07:06:22;99197.69;;;17.00
15144;BMP180;7672;50.834;6.286;2024-02-16T07:08:50;99205.38;;;17.00
15144;BMP180;7672;50.834;6.286;2024-02-16T07:11:17;99202.75;;;17.01
15144;BMP180;7672;50.834;6.286;2024-02-16T07:13:45;99200.97;;;17.05
15144;BMP180;7672;50.834;6.286;2024-02-16T07:16:13;99211.94;;;17.08
15144;BMP180;7672;50.834;6.286;2024-02-16T07:18:40;99223.72;;;17.12
15144;BMP180;7672;50.834;6.286;2024-02-16T07:21:09;99221.88;;;17.16
15144;BMP180;7672;50.834;6.286;2024-02-16T07:23:37;99229.47;;;17.19
15144;BMP180;7672;50.834;6.286;2024-02-16T07:26:05;99225.19;;;17.19
15144;BMP180;7672;50.834;6.286;2024-02-16T07:28:34;99220.03;;;17.21
15144;BMP180;7672;50.834;6.286;2024-02-16T07:31:01;99235.34;;;17.21
15144;BMP180;7672;50.834;6.286;2024-02-16T07:33:30;99225.06;;;17.24
15144;BMP180;7672;50.834;6.286;2024-02-16T07:35:57;99232.78;;;17.22
15144;BMP180;7672;50.834;6.286;2024-02-16T07:38:24;99239.53;;;17.25
15144;BMP180;7672;50.834;6.286;2024-02-16T07:40:51;99250.50;;;17.28
15144;BMP180;7672;50.834;6.286;2024-02-16T07:43:18;99250.44;;;17.30
15144;BMP180;7672;50.834;6.286;2024-02-16T07:45:46;99244.50;;;17.29
15144;BMP180;7672;50.834;6.286;2024-02-16T07:48:13;99238.47;;;17.32
15144;BMP180;7672;50.834;6.286;2024-02-16T07:50:41;99246.97;;;17.32
15144;BMP180;7672;50.834;6.286;2024-02-16T07:53:08;99252.88;;;17.34
15144;BMP180;7672;50.834;6.286;2024-02-16T07:55:38;99251.06;;;17.37
15144;BMP180;7672;50.834;6.286;2024-02-16T07:58:05;99244.19;;;17.39
15144;BMP180;7672;50.834;6.286;2024-02-16T08:00:32;99241.56;;;17.42
15144;BMP180;7672;50.834;6.286;2024-02-16T08:02:59;99244.81;;;17.46
15144;BMP180;7672;50.834;6.286;2024-02-16T08:05:26;99241.28;;;17.51
15144;BMP180;7672;50.834;6.286;2024-02-16T08:07:54;99248.78;;;17.56
15144;BMP180;7672;50.834;6.286;2024-02-16T08:10:22;99250.34;;;17.60
15144;BMP180;7672;50.834;6.286;2024-02-16T08:12:49;99257.06;;;17.64
15144;BMP180;7672;50.834;6.286;2024-02-16T08:15:16;99262.06;;;17.67
15144;BMP180;7672;50.834;6.286;2024-02-16T08:17:50;99261.97;;;17.70
15144;BMP180;7672;50.834;6.286;2024-02-16T08:20:21;99262.75;;;17.72
15144;BMP180;7672;50.834;6.286;2024-02-16T08:22:48;99267.75;;;17.75
15144;BMP180;7672;50.834;6.286;2024-02-16T08:25:15;99275.38;;;17.76
15144;BMP180;7672;50.834;6.286;2024-02-16T08:27:42;99277.81;;;17.81
15144;BMP180;7672;50.834;6.286;2024-02-16T08:30:10;99281.94;;;17.85
15144;BMP180;7672;50.834;6.286;2024-02-16T08:37:05;99298.97;;;17.86
15144;BMP180;7672;50.834;6.286;2024-02-16T08:39:33;99298.75;;;17.92
15144;BMP180;7672;50.834;6.286;2024-02-16T08:42:01;99294.31;;;17.96
15144;BMP180;7672;50.834;6.286;2024-02-16T08:44:30;99304.41;;;18.01
15144;BMP180;7672;50.834;6.286;2024-02-16T08:46:57;99294.06;;;18.04
15144;BMP180;7672;50.834;6.286;2024-02-16T08:49:24;99294.81;;;18.07
15144;BMP180;7672;50.834;6.286;2024-02-16T08:51:51;99314.31;;;18.11
15144;BMP180;7672;50.834;6.286;2024-02-16T08:54:18;99311.66;;;18.14
15144;BMP180;7672;50.834;6.286;2024-02-16T08:56:46;99316.59;;;18.20
15144;BMP180;7672;50.834;6.286;2024-02-16T08:59:15;99314.72;;;18.25
15144;BMP180;7672;50.834;6.286;2024-02-16T09:01:43;99323.09;;;18.30
15144;BMP180;7672;50.834;6.286;2024-02-16T09:04:10;99325.47;;;18.36
15144;BMP180;7672;50.834;6.286;2024-02-16T09:06:37;99323.63;;;18.40
15144;BMP180;7672;50.834;6.286;2024-02-16T09:09:05;99325.22;;;18.44
15144;BMP180;7672;50.834;6.286;2024-02-16T09:11:36;99324.28;;;18.46
15144;BMP180;7672;50.834;6.286;2024-02-16T09:14:03;99330.06;;;18.51
15144;BMP180;7672;50.834;6.286;2024-02-16T09:16:30;99343.59;;;18.55
15144;BMP180;7672;50.834;6.286;2024-02-16T09:18:59;99338.38;;;18.58
15144;BMP180;7672;50.834;6.286;2024-02-16T09:21:26;99341.75;;;18.58
15144;BMP180;7672;50.834;6.286;2024-02-16T09:23:56;99339.19;;;18.58
15144;BMP180;7672;50.834;6.286;2024-02-16T09:26:28;99354.56;;;18.58
15144;BMP180;7672;50.834;6.286;2024-02-16T09:28:57;99352.81;;;18.60
15144;BMP180;7672;50.834;6.286;2024-02-16T09:31:25;99352.69;;;18.63
15144;BMP180;7672;50.834;6.286;2024-02-16T09:33:52;99347.56;;;18.63
15144;BMP180;7672;50.834;6.286;2024-02-16T09:36:20;99354.25;;;18.67
15144;BMP180;7672;50.834;6.286;2024-02-16T09:38:47;99366.06;;;18.71
15144;BMP180;7672;50.834;6.286;2024-02-16T09:41:14;99361.56;;;18.77
15144;BMP180;7672;50.834;6.286;2024-02-16T09:43:43;99362.31;;;18.81
15144;BMP180;7672;50.834;6.286;2024-02-16T09:46:10;99366.28;;;18.89
15144;BMP180;7672;50.834;6.286;2024-02-16T09:48:40;99374.59;;;18.96
15144;BMP180;7672;50.834;6.286;2024-02-16T09:51:08;99376.16;;;19.00
15144;BMP180;7672;50.834;6.286;2024-02-16T09:53:35;99376.84;;;19.05
15144;BMP180;7672;50.834;6.286;2024-02-16T09:56:05;99390.41;;;19.08
15144;BMP180;7672;50.834;6.286;2024-02-16T09:58:35;99383.50;;;19.10
15144;BMP180;7672;50.834;6.286;2024-02-16T10:01:03;99376.66;;;19.11
15144;BMP180;7672;50.834;6.286;2024-02-16T10:03:32;99385.22;;;19.10
15144;BMP180;7672;50.834;6.286;2024-02-16T10:06:10;99386.09;;;19.09
15144;BMP180;7672;50.834;6.286;2024-02-16T10:08:52;99386.16;;;19.07
15144;BMP180;7672;50.834;6.286;2024-02-16T10:11:22;99402.34;;;19.08
15144;BMP180;7672;50.834;6.286;2024-02-16T10:14:00;99403.09;;;19.11
15144;BMP180;7672;50.834;6.286;2024-02-16T10:16:29;99402.09;;;19.15
15144;BMP180;7672;50.834;6.286;2024-02-16T10:19:04;99401.00;;;19.22
15144;BMP180;7672;50.834;6.286;2024-02-16T10:21:31;99405.94;;;19.26
15144;BMP180;7672;50.834;6.286;2024-02-16T10:24:11;99407.38;;;19.35
15144;BMP180;7672;50.834;6.286;2024-02-16T10:26:38;99413.06;;;19.43
15144;BMP180;7672;50.834;6.286;2024-02-16T10:29:10;99417.78;;;19.53
15144;BMP180;7672;50.834;6.286;2024-02-16T10:31:38;99420.13;;;19.59
15144;BMP180;7672;50.834;6.286;2024-02-16T10:34:06;99434.28;;;19.69
15144;BMP180;7672;50.834;6.286;2024-02-16T10:36:36;99431.50;;;19.75
15144;BMP180;7672;50.834;6.286;2024-02-16T10:39:06;99438.06;;;19.82
15144;BMP180;7672;50.834;6.286;2024-02-16T10:41:39;99436.19;;;19.87
15144;BMP180;7672;50.834;6.286;2024-02-16T10:44:07;99444.56;;;19.92
15144;BMP180;7672;50.834;6.286;2024-02-16T10:46:34;99453.00;;;19.95
15144;BMP180;7672;50.834;6.286;2024-02-16T10:49:03;99453.59;;;20.02
15144;BMP180;7672;50.834;6.286;2024-02-16T10:51:46;99460.28;;;20.06
15144;BMP180;7672;50.834;6.286;2024-02-16T10:54:18;99458.38;;;20.11
15144;BMP180;7672;50.834;6.286;2024-02-16T10:56:47;99460.78;;;20.15
15144;BMP180;7672;50.834;6.286;2024-02-16T10:59:16;99463.28;;;20.17
15144;BMP180;7672;50.834;6.286;2024-02-16T11:01:44;99465.72;;;20.20
15144;BMP180;7672;50.834;6.286;2024-02-16T11:04:16;99475.03;;;20.22
15144;BMP180;7672;50.834;6.286;2024-02-16T11:06:56;99475.84;;;20.24
15144;BMP180;7672;50.834;6.286;2024-02-16T11:09:35;99478.34;;;20.26
15144;BMP180;7672;50.834;6.286;2024-02-16T11:12:05;99492.78;;;20.28
15144;BMP180;7672;50.834;6.286;2024-02-16T11:14:36;99496.19;;;20.29
15144;BMP180;7672;50.834;6.286;2024-02-16T11:17:11;99495.34;;;20.28
15144;BMP180;7672;50.834;6.286;2024-02-16T11:19:44;99500.56;;;20.27
15144;BMP180;7672;50.834;6.286;2024-02-16T11:22:17;99492.00;;;20.26
15144;BMP180;7672;50.834;6.286;2024-02-16T11:24:53;99493.00;;;20.22
15144;BMP180;7672;50.834;6.286;2024-02-16T11:27:27;99499.31;;;20.14
15144;BMP180;7672;50.834;6.286;2024-02-16T11:29:58;99506.41;;;20.07
15144;BMP180;7672;50.834;6.286;2024-02-16T11:32:27;99498.84;;;20.04
15144;BMP180;7672;50.834;6.286;2024-02-16T11:34:54;99499.78;;;20.02
15144;BMP180;7672;50.834;6.286;2024-02-16T11:37:21;99510.19;;;19.97
15144;BMP180;7672;50.834;6.286;2024-02-16T11:39:55;99509.59;;;19.91
15144;BMP180;7672;50.834;6.286;2024-02-16T11:42:23;99512.28;;;19.86
15144;BMP180;7672;50.834;6.286;2024-02-16T11:44:52;99521.88;;;19.82
15144;BMP180;7672;50.834;6.286;2024-02-16T11:47:25;99516.97;;;19.76
15144;BMP180;7672;50.834;6.286;2024-02-16T11:50:06;99512.16;;;19.67
15144;BMP180;7672;50.834;6.286;2024-02-16T11:52:41;99511.59;;;19.59
15144;BMP180;7672;50.834;6.286;2024-02-16T11:55:10;99528.00;;;19.53
15144;BMP180;7672;50.834;6.286;2024-02-16T11:57:38;99535.06;;;19.47
15144;BMP180;7672;50.834;6.286;2024-02-16T12:00:06;99523.31;;;19.41
15144;BMP180;7672;50.834;6.286;2024-02-16T12:02:36;99527.75;;;19.36
15144;BMP180;7672;50.834;6.286;2024-02-16T12:05:04;99530.50;;;19.32
15144;BMP180;7672;50.834;6.286;2024-02-16T12:07:32;99517.75;;;19.29
15144;BMP180;7672;50.834;6.286;2024-02-16T12:10:03;99525.50;;;19.27
15144;BMP180;7672;50.834;6.286;2024-02-16T12:12:33;99519.63;;;19.24
15144;BMP180;7672;50.834;6.286;2024-02-16T12:15:00;99530.00;;;19.21
15144;BMP180;7672;50.834;6.286;2024-02-16T12:17:28;99522.44;;;19.17
15144;BMP180;7672;50.834;6.286;2024-02-16T12:19:55;99534.56;;;19.12
15144;BMP180;7672;50.834;6.286;2024-02-16T12:22:25;99527.00;;;19.09
15144;BMP180;7672;50.834;6.286;2024-02-16T12:24:52;99539.03;;;19.07
15144;BMP180;7672;50.834;6.286;2024-02-16T12:27:19;99543.25;;;19.08
15144;BMP180;7672;50.834;6.286;2024-02-16T12:29:46;99549.28;;;19.07
15144;BMP180;7672;50.834;6.286;2024-02-16T12:32:13;99544.16;;;19.05
15144;BMP180;7672;50.834;6.286;2024-02-16T12:34:46;99552.63;;;19.09
15144;BMP180;7672;50.834;6.286;2024-02-16T12:37:13;99554.41;;;19.07
15144;BMP180;7672;50.834;6.286;2024-02-16T12:39:40;99544.25;;;19.02
15144;BMP180;7672;50.834;6.286;2024-02-16T12:42:07;99552.00;;;19.01
15144;BMP180;7672;50.834;6.286;2024-02-16T12:44:35;99552.09;;;18.98
15144;BMP180;7672;50.834;6.286;2024-02-16T12:47:02;99560.66;;;18.97
15144;BMP180;7672;50.834;6.286;2024-02-16T12:49:29;99556.47;;;18.94
15144;BMP180;7672;50.834;6.286;2024-02-16T12:51:57;99560.75;;;18.94
15144;BMP180;7672;50.834;6.286;2024-02-16T12:54:24;99558.28;;;18.91
15144;BMP180;7672;50.834;6.286;2024-02-16T12:56:52;99565.09;;;18.92
15144;BMP180;7672;50.834;6.286;2024-02-16T12:59:20;99561.72;;;18.90
15144;BMP180;7672;50.834;6.286;2024-02-16T13:01:47;99574.47;;;18.91
15144;BMP180;7672;50.834;6.286;2024-02-16T13:04:14;99578.66;;;18.94
15144;BMP180;7672;50.834;6.286;2024-02-16T13:06:48;99582.09;;;18.94
15144;BMP180;7672;50.834;6.286;2024-02-16T13:09:17;99577.84;;;18.93
15144;BMP180;7672;50.834;6.286;2024-02-16T13:11:44;99575.34;;;18.92
15144;BMP180;7672;50.834;6.286;2024-02-16T13:14:11;99584.78;;;18.90
15144;BMP180;7672;50.834;6.286;2024-02-16T13:16:38;99582.22;;;18.90
15144;BMP180;7672;50.834;6.286;2024-02-16T13:19:05;99585.56;;;18.92
15144;BMP180;7672;50.834;6.286;2024-02-16T13:21:32;99587.28;;;18.91
15144;BMP180;7672;50.834;6.286;2024-02-16T13:23:59;99589.81;;;18.93
15144;BMP180;7672;50.834;6.286;2024-02-16T13:26:27;99585.63;;;18.90
15144;BMP180;7672;50.834;6.286;2024-02-16T13:28:55;99595.19;;;18.85
15144;BMP180;7672;50.834;6.286;2024-02-16T13:31:23;99601.28;;;18.81
15144;BMP180;7672;50.834;6.286;2024-02-16T13:33:53;99599.66;;;18.79
15144;BMP180;7672;50.834;6.286;2024-02-16T13:36:20;99603.16;;;18.75
15144;BMP180;7672;50.834;6.286;2024-02-16T13:38:50;99604.09;;;18.72
15144;BMP180;7672;50.834;6.286;2024-02-16T13:41:23;99608.56;;;18.66
15144;BMP180;7672;50.834;6.286;2024-02-16T13:44:00;99603.59;;;18.61
15144;BMP180;7672;50.834;6.286;2024-02-16T13:46:37;99609.69;;;18.58
15144;BMP180;7672;50.834;6.286;2024-02-16T13:49:18;99614.06;;;18.54
15144;BMP180;7672;50.834;6.286;2024-02-16T13:51:48;99623.53;;;18.51
15144;BMP180;7672;50.834;6.286;2024-02-16T13:54:20;99622.81;;;18.46
15144;BMP180;7672;50.834;6.286;2024-02-16T13:57:12;99623.78;;;18.42
15144;BMP180;7672;50.834;6.286;2024-02-16T13:59:39;99623.94;;;18.37
15144;BMP180;7672;50.834;6.286;2024-02-16T14:02:09;99627.44;;;18.35
15144;BMP180;7672;50.834;6.286;2024-02-16T14:04:36;99624.16;;;18.30
15144;BMP180;7672;50.834;6.286;2024-02-16T14:07:07;99643.00;;;18.27
15144;BMP180;7672;50.834;6.286;2024-02-16T14:09:34;99640.50;;;18.24
15144;BMP180;7672;50.834;6.286;2024-02-16T14:12:02;99639.72;;;18.22
15144;BMP180;7672;50.834;6.286;2024-02-16T14:14:29;99643.25;;;18.18
15144;BMP180;7672;50.834;6.286;2024-02-16T14:17:04;99651.81;;;18.16
15144;BMP180;7672;50.834;6.286;2024-02-16T14:19:32;99649.28;;;18.14
15144;BMP180;7672;50.834;6.286;2024-02-16T14:25:29;99656.31;;;18.06
15144;BMP180;7672;50.834;6.286;2024-02-16T14:27:59;99659.66;;;18.08
15144;BMP180;7672;50.834;6.286;2024-02-16T14:30:26;99665.63;;;18.09
15144;BMP180;7672;50.834;6.286;2024-02-16T14:32:54;99662.19;;;18.10
15144;BMP180;7672;50.834;6.286;2024-02-16T14:35:21;99664.75;;;18.10
15144;BMP180;7672;50.834;6.286;2024-02-16T14:37:49;99670.72;;;18.09